Saint George, Canada
Current Conditions -  °F | °C
As of 4:00 AM on Friday 21 Nov 2014 (Local Time) from CYSJ Reporting Station
Few Clouds Few Clouds  
Wind Chill: 18°   Ceiling: Unl
Heat Index: 18°   Visibility: 15mi
Dew Point: 16°   Wind: 0mph
Humidity: 93%   Direction: NA
Pressure: 29.76"   Gusts: NA
Location:  45.13°N, 66.82°W
Report Text: CYSJ 210800Z 00000KT 15SM FEW085 M08/M09 A2976 RMK AC2 SLP082
Loading
Personal Weather Stations






























Interactive Weather Map New forecast layout! Learn more

10-Day Weather Forecast

Advertisements
Track Severe Weather on mobile